Time;durP1;ratioP1;P1;durP2;ratioP2;P2;SDS_P1;SDS_P2;PMS_P1;PMS_P2;Temp;Humidity;BMP_temperature;BMP_pressure;BME280_temperature;BME280_humidity;BME280_pressure;Samples;Min_cycle;Max_cycle;Signal;HPM_P1;HPM_P2
2020/12/21 00:01:50;;;;;;;20.27;14.93;;;;;;;11.54;58.45;101450.77;1726786;81;21589;-65
2020/12/21 00:04:17;;;;;;;20.10;15.25;;;;;;;11.53;58.45;101447.77;1750026;81;21456;-64
2020/12/21 00:06:55;;;;;;;19.17;14.87;;;;;;;11.52;58.45;101443.41;1739131;82;21194;-64
2020/12/21 00:09:24;;;;;;;21.23;15.45;;;;;;;11.51;58.44;101445.73;1748585;81;21189;-64
2020/12/21 00:11:53;;;;;;;18.00;14.43;;;;;;;11.50;58.44;101452.02;1748734;81;21172;-66
2020/12/21 00:14:20;;;;;;;19.27;15.05;;;;;;;11.49;58.44;101443.69;1750938;81;21202;-65
2020/12/21 00:16:50;;;;;;;19.82;14.73;;;;;;;11.49;58.43;101450.34;1741519;81;21190;-67
2020/12/21 00:19:20;;;;;;;22.07;15.70;;;;;;;11.49;58.43;101453.01;1758485;81;21123;-65
2020/12/21 00:21:50;;;;;;;20.92;14.78;;;;;;;11.47;58.44;101449.61;1746898;81;21127;-65
2020/12/21 00:24:18;;;;;;;18.65;14.83;;;;;;;11.47;58.39;101448.27;1767128;80;21399;-64
2020/12/21 00:26:47;;;;;;;20.35;15.28;;;;;;;11.47;58.42;101444.78;1760940;81;21640;-63
2020/12/21 00:29:14;;;;;;;20.35;15.43;;;;;;;11.46;58.42;101442.61;1745252;81;21725;-65
2020/12/21 00:31:43;;;;;;;20.77;15.35;;;;;;;11.46;58.41;101443.11;1748308;81;21213;-65
2020/12/21 00:34:11;;;;;;;20.65;15.80;;;;;;;11.45;58.41;101442.24;1760947;81;21175;-65
2020/12/21 00:36:45;;;;;;;22.60;15.05;;;;;;;11.45;58.40;101448.89;1738281;81;21519;-65
2020/12/21 00:39:13;;;;;;;21.25;16.05;;;;;;;11.44;58.40;101444.56;1763773;80;21614;-65
2020/12/21 00:41:45;;;;;;;19.75;14.93;;;;;;;11.44;58.38;101441.91;1765463;80;21183;-65
2020/12/21 00:44:12;;;;;;;20.23;15.35;;;;;;;11.43;58.36;101440.20;1753836;81;21218;-65
2020/12/21 00:46:40;;;;;;;20.08;15.40;;;;;;;11.43;58.35;101440.20;1748762;81;21465;-65
2020/12/21 00:49:08;;;;;;;21.50;15.63;;;;;;;11.42;58.36;101439.86;1745520;81;21349;-65
2020/12/21 00:51:36;;;;;;;22.67;16.52;;;;;;;11.42;58.36;101439.86;1746146;81;21127;-65
2020/12/21 00:54:03;;;;;;;21.30;15.55;;;;;;;11.42;58.33;101433.21;1743860;81;21179;-65
2020/12/21 00:56:31;;;;;;;21.65;15.10;;;;;;;11.41;58.31;101436.83;1762041;81;21146;-66
2020/12/21 00:58:58;;;;;;;21.45;16.17;;;;;;;11.40;58.31;101433.83;1747014;81;21147;-66
2020/12/21 01:01:28;;;;;;;22.58;15.45;;;;;;;11.40;58.31;101435.16;1747051;81;21359;-66
2020/12/21 01:03:59;;;;;;;20.08;15.45;;;;;;;11.39;58.30;101428.98;1737230;81;21151;-65
2020/12/21 01:06:26;;;;;;;19.70;14.10;;;;;;;11.39;58.29;101432.13;1734266;81;21175;-65
2020/12/21 01:08:56;;;;;;;22.67;15.10;;;;;;;11.39;58.29;101432.13;1734246;81;21159;-65
2020/12/21 01:11:24;;;;;;;22.30;16.20;;;;;;;11.38;58.28;101431.30;1737587;81;21628;-65
2020/12/21 01:13:51;;;;;;;19.77;14.50;;;;;;;11.38;58.28;101429.97;1729346;81;23583;-65
2020/12/21 01:16:19;;;;;;;21.12;15.15;;;;;;;11.37;58.27;101427.43;1708541;82;21224;-65
2020/12/21 01:18:49;;;;;;;24.02;15.43;;;;;;;11.37;58.25;101430.92;1735605;81;21200;-65
2020/12/21 01:21:26;;;;;;;20.40;15.25;;;;;;;11.36;58.23;101426.59;1733634;81;21218;-65
2020/12/21 01:23:55;;;;;;;22.52;16.12;;;;;;;11.37;58.23;101424.27;1722303;81;21171;-64
2020/12/21 01:26:23;;;;;;;21.80;15.83;;;;;;;11.36;58.21;101421.77;1734144;81;22318;-64
2020/12/21 01:28:51;;;;;;;22.05;15.43;;;;;;;11.35;58.23;101420.91;1735594;81;21182;-64
2020/12/21 01:31:20;;;;;;;21.70;16.32;;;;;;;11.35;58.20;101421.40;1736827;81;21153;-65
2020/12/21 01:33:48;;;;;;;21.57;15.55;;;;;;;11.35;58.23;101421.40;1739970;81;21175;-65
2020/12/21 01:36:17;;;;;;;21.97;16.27;;;;;;;11.34;58.21;101417.07;1719853;81;21182;-64
2020/12/21 01:38:45;;;;;;;22.65;15.15;;;;;;;11.34;58.20;101415.73;1709148;82;22249;-65
2020/12/21 01:41:15;;;;;;;20.43;14.38;;;;;;;11.34;58.20;101423.72;1724465;81;21616;-66
2020/12/21 01:43:42;;;;;;;21.42;15.18;;;;;;;11.33;58.18;101422.86;1719836;82;21204;-66
2020/12/21 01:46:13;;;;;;;19.35;14.68;;;;;;;11.33;58.16;101424.68;1735906;81;21757;-67
2020/12/21 01:48:41;;;;;;;22.20;14.95;;;;;;;11.32;58.15;101423.84;1735776;81;21596;-66
2020/12/21 01:51:10;;;;;;;21.68;15.45;;;;;;;11.32;58.17;101422.98;1723893;81;21355;-66
2020/12/21 01:53:38;;;;;;;20.85;15.20;;;;;;;11.32;58.13;101426.97;1707527;82;21129;-67
2020/12/21 01:56:06;;;;;;;20.88;15.43;;;;;;;11.33;58.13;101428.67;1743176;81;21226;-66
2020/12/21 01:58:34;;;;;;;22.55;14.70;;;;;;;11.31;58.13;101424.80;1735046;81;21140;-66
2020/12/21 02:01:02;;;;;;;20.75;14.28;;;;;;;11.31;58.12;101421.31;1744519;81;21099;-65
2020/12/21 02:03:30;;;;;;;20.75;15.30;;;;;;;11.30;58.10;101426.27;1722285;81;21392;-65
2020/12/21 02:05:57;;;;;;;22.20;15.30;;;;;;;11.30;58.09;101423.60;1736541;82;21195;-66
2020/12/21 02:08:24;;;;;;;22.77;14.58;;;;;;;11.30;58.09;101426.27;1720347;82;21203;-66
2020/12/21 02:10:52;;;;;;;21.00;15.28;;;;;;;11.29;58.05;101425.92;1704230;82;21163;-64
2020/12/21 02:13:19;;;;;;;19.30;13.48;;;;;;;11.29;58.07;101423.27;1737338;81;21141;-65
2020/12/21 02:15:47;;;;;;;20.00;13.40;;;;;;;11.30;58.06;101428.92;1735294;81;21946;-64
2020/12/21 02:18:14;;;;;;;19.77;13.35;;;;;;;11.29;58.04;101429.91;1738168;80;22151;-64
2020/12/21 02:20:42;;;;;;;19.85;14.15;;;;;;;11.28;58.03;101422.89;1739117;81;21791;-65
2020/12/21 02:23:09;;;;;;;19.92;13.90;;;;;;;11.28;58.02;101418.91;1739160;80;21201;-65
2020/12/21 02:25:37;;;;;;;19.23;14.25;;;;;;;11.27;57.98;101414.08;1720508;82;21147;-63
2020/12/21 02:28:05;;;;;;;18.45;13.68;;;;;;;11.27;57.97;101414.08;1723068;82;21376;-64
2020/12/21 02:30:32;;;;;;;24.25;15.50;;;;;;;11.27;57.98;101417.23;1719505;82;21166;-64
2020/12/21 02:32:59;;;;;;;19.52;13.90;;;;;;;11.27;57.96;101415.91;1736017;82;21170;-64
2020/12/21 02:35:26;;;;;;;18.57;13.30;;;;;;;11.28;57.93;101420.23;1739732;81;21223;-64
2020/12/21 02:37:56;;;;;;;21.12;14.40;;;;;;;11.26;57.92;101417.73;1745860;81;21160;-65
2020/12/21 02:40:23;;;;;;;21.15;14.55;;;;;;;11.26;57.91;101418.20;1730702;82;21367;-66
2020/12/21 02:42:51;;;;;;;18.00;13.38;;;;;;;11.25;57.90;101421.35;1738569;82;21223;-63
2020/12/21 02:45:18;;;;;;;20.05;13.85;;;;;;;11.26;57.91;101427.50;1724659;82;21206;-64
2020/12/21 02:47:45;;;;;;;19.27;13.85;;;;;;;11.25;57.90;101427.16;1746713;81;21144;-63
2020/12/21 02:50:13;;;;;;;17.23;12.30;;;;;;;11.24;57.89;101425.47;1732101;81;22081;-64
2020/12/21 02:52:42;;;;;;;18.45;13.20;;;;;;;11.21;57.92;101419.44;1724648;82;21388;-62
2020/12/21 02:55:10;;;;;;;19.10;13.22;;;;;;;11.21;57.88;101427.41;1744747;82;21131;-63
2020/12/21 02:57:37;;;;;;;19.65;13.25;;;;;;;11.21;57.87;101426.09;1732252;82;21104;-64
2020/12/21 03:00:10;;;;;;;17.23;13.72;;;;;;;11.21;57.88;101429.24;1729325;82;21167;-64
2020/12/21 03:02:37;;;;;;;18.27;13.22;;;;;;;11.20;57.87;101436.39;1764549;80;21127;-65
2020/12/21 03:05:07;;;;;;;16.42;12.78;;;;;;;11.20;57.86;101436.84;1777902;80;22233;-64
2020/12/21 03:07:35;;;;;;;17.12;12.37;;;;;;;11.20;57.88;101440.37;1761292;80;21176;-63
2020/12/21 03:10:02;;;;;;;17.12;14.18;;;;;;;11.18;57.83;101436.14;1778448;80;21143;-64
2020/12/21 03:12:30;;;;;;;19.20;12.60;;;;;;;11.18;57.84;101442.33;1747454;80;21405;-65
2020/12/21 03:14:57;;;;;;;16.40;12.65;;;;;;;11.18;57.84;101441.46;1743089;80;21128;-63
2020/12/21 03:17:25;;;;;;;16.70;12.28;;;;;;;11.17;57.83;101428.66;1755160;80;21385;-62
2020/12/21 03:19:52;;;;;;;16.32;12.18;;;;;;;11.16;57.83;101436.30;1753639;80;21162;-63
2020/12/21 03:22:19;;;;;;;15.72;12.10;;;;;;;11.17;57.82;101437.97;1753085;80;21144;-63
2020/12/21 03:24:46;;;;;;;17.92;13.60;;;;;;;11.16;57.82;101432.30;1752617;80;21175;-63
2020/12/21 03:27:14;;;;;;;16.70;13.15;;;;;;;11.16;57.81;101429.64;1757917;80;21188;-64
2020/12/21 03:29:43;;;;;;;16.82;12.73;;;;;;;11.16;57.81;101428.78;1751686;80;21206;-63
2020/12/21 03:32:10;;;;;;;17.70;12.93;;;;;;;11.17;57.79;101430.48;1756840;80;21183;-63
2020/12/21 03:34:38;;;;;;;17.55;11.78;;;;;;;11.16;57.76;101431.44;1752925;80;21572;-64
2020/12/21 03:37:05;;;;;;;18.05;13.32;;;;;;;11.16;57.78;101430.11;1763903;80;21143;-63
2020/12/21 03:39:33;;;;;;;18.55;12.75;;;;;;;11.15;57.77;101435.09;1758705;80;21194;-63
2020/12/21 03:42:01;;;;;;;16.32;11.63;;;;;;;11.15;57.76;101433.77;1765703;80;21335;-66
2020/12/21 03:44:30;;;;;;;16.50;12.45;;;;;;;11.14;57.75;101436.88;1758874;80;21761;-64
2020/12/21 03:46:57;;;;;;;16.87;12.95;;;;;;;11.14;57.73;101437.37;1758768;80;21151;-65
2020/12/21 03:49:25;;;;;;;17.87;13.65;;;;;;;11.13;57.73;101439.20;1763882;80;21623;-63
2020/12/21 03:51:52;;;;;;;17.82;13.35;;;;;;;11.13;57.70;101440.53;1760807;80;21115;-63
2020/12/21 03:54:22;;;;;;;17.77;12.73;;;;;;;11.13;57.71;101441.86;1771884;80;21574;-63
2020/12/21 03:56:50;;;;;;;18.15;12.58;;;;;;;11.13;57.69;101439.70;1777611;80;21159;-63
2020/12/21 03:59:17;;;;;;;17.92;13.03;;;;;;;11.12;57.71;101438.83;1752590;80;21182;-64
2020/12/21 04:01:44;;;;;;;17.87;13.30;;;;;;;11.11;57.70;101438.49;1765957;80;21234;-64
2020/12/21 04:04:11;;;;;;;17.95;12.47;;;;;;;11.12;57.70;101442.82;1776107;80;21116;-64
2020/12/21 04:06:39;;;;;;;16.77;13.05;;;;;;;11.12;57.70;101440.66;1760363;80;21202;-65
2020/12/21 04:09:06;;;;;;;17.75;12.75;;;;;;;11.11;57.67;101436.33;1727256;81;21208;-65
2020/12/21 04:11:35;;;;;;;16.20;12.70;;;;;;;11.11;57.66;101441.15;1752013;81;21228;-64
2020/12/21 04:14:02;;;;;;;17.32;12.35;;;;;;;11.11;57.67;101434.50;1737759;81;21191;-64
2020/12/21 04:16:30;;;;;;;19.23;12.60;;;;;;;11.10;57.64;101432.80;1770978;80;21107;-64
2020/12/21 04:18:57;;;;;;;18.10;12.73;;;;;;;11.10;57.64;101435.46;1731567;81;21157;-66
2020/12/21 04:21:24;;;;;;;17.70;12.82;;;;;;;11.10;57.64;101434.13;1754151;80;21200;-65
2020/12/21 04:23:52;;;;;;;18.12;12.50;;;;;;;11.10;57.63;101435.46;1742947;81;21142;-64
2020/12/21 04:26:19;;;;;;;17.32;12.33;;;;;;;11.10;57.61;101427.98;1742967;81;21170;-64
2020/12/21 04:28:46;;;;;;;17.82;12.68;;;;;;;11.09;57.62;101420.98;1743203;81;21634;-64
2020/12/21 04:31:13;;;;;;;15.55;11.88;;;;;;;11.08;57.61;101422.78;1739578;81;21634;-66
2020/12/21 04:33:41;;;;;;;20.35;13.68;;;;;;;11.09;57.62;101430.30;1746990;81;21174;-66
2020/12/21 04:36:10;;;;;;;17.12;12.47;;;;;;;11.09;57.62;101428.47;1715898;82;21192;-65
2020/12/21 04:38:41;;;;;;;17.25;12.63;;;;;;;11.08;57.62;101428.10;1750237;81;21122;-65
2020/12/21 04:41:09;;;;;;;17.60;12.25;;;;;;;11.08;57.62;101425.44;1744345;81;21170;-66
2020/12/21 04:43:37;;;;;;;17.52;12.70;;;;;;;11.07;57.59;101416.25;1755495;81;21275;-65
2020/12/21 04:46:07;;;;;;;17.52;13.35;;;;;;;11.07;57.59;101419.78;1753943;81;21170;-65
2020/12/21 04:48:40;;;;;;;19.45;12.85;;;;;;;11.07;57.60;101416.25;1738460;81;21210;-66
2020/12/21 04:51:08;;;;;;;19.40;13.08;;;;;;;11.06;57.57;101414.09;1764524;81;21159;-66
2020/12/21 04:53:38;;;;;;;17.77;12.68;;;;;;;11.06;57.59;101416.75;1751383;81;21654;-66
2020/12/21 04:56:06;;;;;;;19.42;12.93;;;;;;;11.06;57.58;101425.23;1736783;81;21243;-65
2020/12/21 04:58:34;;;;;;;18.02;12.68;;;;;;;11.05;57.57;101419.07;1749496;81;21179;-66
2020/12/21 05:01:01;;;;;;;19.85;13.98;;;;;;;11.04;57.58;101422.69;1752697;81;21625;-65
2020/12/21 05:03:29;;;;;;;18.40;12.98;;;;;;;11.04;57.56;101420.03;1782450;80;21717;-65
2020/12/21 05:06:02;;;;;;;19.37;13.20;;;;;;;11.05;57.57;101423.52;1740902;81;21210;-64
2020/12/21 05:08:29;;;;;;;17.95;12.53;;;;;;;11.04;57.57;101428.01;1769981;80;21178;-65
2020/12/21 05:11:00;;;;;;;18.10;12.15;;;;;;;11.04;57.57;101427.17;1754017;80;21237;-65
2020/12/21 05:13:31;;;;;;;19.48;12.78;;;;;;;11.03;57.57;101426.34;1740022;81;21139;-65
2020/12/21 05:15:59;;;;;;;17.17;12.25;;;;;;;11.02;57.57;101425.47;1759507;80;21151;-66
2020/12/21 05:18:36;;;;;;;17.20;12.70;;;;;;;11.02;57.56;101421.98;1732373;81;21194;-66
2020/12/21 05:21:10;;;;;;;16.85;12.40;;;;;;;11.02;57.57;101421.98;1748297;81;21175;-65
2020/12/21 05:23:37;;;;;;;16.65;11.65;;;;;;;11.02;57.57;101420.64;1749376;81;21103;-66
2020/12/21 05:26:07;;;;;;;16.37;10.98;;;;;;;11.00;57.55;101419.94;1724636;81;21163;-65
2020/12/21 05:28:38;;;;;;;16.05;12.07;;;;;;;11.00;57.55;101420.77;1753209;81;21178;-65
2020/12/21 05:31:07;;;;;;;17.07;12.40;;;;;;;11.00;57.55;101422.59;1728962;82;21161;-65
2020/12/21 05:33:39;;;;;;;15.40;11.50;;;;;;;10.99;57.56;101426.22;1754733;80;21622;-65
2020/12/21 05:36:10;;;;;;;17.62;12.73;;;;;;;10.97;57.56;101426.37;1745356;81;21119;-65
2020/12/21 05:38:38;;;;;;;15.55;11.00;;;;;;;10.98;57.56;101423.22;1752534;81;21570;-65
2020/12/21 05:44:20;;;;;;;17.00;12.13;;;;;;;11.01;57.57;101420.31;1787704;79;28626;-65
2020/12/21 05:46:48;;;;;;;16.75;11.33;;;;;;;10.96;57.56;101424.66;1787159;79;21083;-65
2020/12/21 05:49:15;;;;;;;16.70;11.93;;;;;;;10.96;57.55;101428.66;1785506;79;21545;-65
2020/12/21 05:51:43;;;;;;;14.75;11.08;;;;;;;10.97;57.52;101432.15;1795035;79;21899;-64
2020/12/21 05:54:10;;;;;;;15.72;11.50;;;;;;;10.96;57.54;101423.83;1787914;79;21161;-66
2020/12/21 05:56:37;;;;;;;14.65;11.75;;;;;;;10.96;57.56;101429.98;1786538;79;21591;-65
2020/12/21 05:59:05;;;;;;;15.23;11.08;;;;;;;10.96;57.49;101432.64;1787850;78;21145;-65
2020/12/21 06:01:33;;;;;;;17.50;11.50;;;;;;;10.96;57.50;101431.81;1770788;80;21381;-65
2020/12/21 06:04:03;;;;;;;17.02;11.73;;;;;;;10.96;57.50;101439.79;1747919;80;21025;-64
2020/12/21 06:06:33;;;;;;;14.50;10.78;;;;;;;10.95;57.49;101440.28;1768413;79;21158;-64
2020/12/21 06:09:02;;;;;;;14.83;10.43;;;;;;;10.97;57.46;101450.30;1769019;80;21651;-64
2020/12/21 06:11:31;;;;;;;13.55;10.08;;;;;;;10.98;57.46;101452.47;1771324;79;21166;-65
2020/12/21 06:14:15;;;;;;;17.27;11.48;;;;;;;10.97;57.45;101453.42;1789239;80;21357;-63
2020/12/21 06:16:43;;;;;;;14.78;10.43;;;;;;;10.96;57.43;101456.58;1767666;78;21585;-64
2020/12/21 06:19:14;;;;;;;14.47;10.58;;;;;;;10.96;57.45;101459.23;1724641;81;21128;-64
2020/12/21 06:21:53;;;;;;;15.08;10.88;;;;;;;10.96;57.43;101457.07;1749209;80;21220;-64
2020/12/21 06:24:23;;;;;;;14.13;10.25;;;;;;;10.95;57.46;101459.36;1763191;80;21243;-65
2020/12/21 06:26:51;;;;;;;15.45;10.80;;;;;;;10.94;57.45;101461.19;1781150;80;22029;-64
2020/12/21 06:29:21;;;;;;;15.15;11.50;;;;;;;10.94;57.47;101459.02;1767815;80;21131;-65
2020/12/21 06:31:53;;;;;;;16.67;10.85;;;;;;;10.93;57.44;101455.52;1790487;80;21641;-65
2020/12/21 06:34:33;;;;;;;13.83;10.30;;;;;;;10.94;57.45;101456.36;1766946;80;21542;-65
2020/12/21 06:37:06;;;;;;;13.53;10.13;;;;;;;10.94;57.45;101455.03;1768011;80;21198;-65
2020/12/21 06:39:33;;;;;;;16.30;10.78;;;;;;;10.93;57.44;101458.64;1790789;80;22238;-66
2020/12/21 06:42:09;;;;;;;15.50;10.50;;;;;;;10.93;57.44;101459.51;1782239;80;21151;-65
2020/12/21 06:44:39;;;;;;;17.23;11.80;;;;;;;10.93;57.43;101460.84;1716789;81;21214;-65
2020/12/21 06:47:11;;;;;;;15.30;11.15;;;;;;;10.93;57.39;101457.31;1736283;81;21162;-64
2020/12/21 06:49:38;;;;;;;14.13;10.50;;;;;;;10.92;57.43;101456.97;1732747;81;21163;-65
2020/12/21 06:52:06;;;;;;;14.45;10.13;;;;;;;10.92;57.43;101460.96;1746607;80;21450;-65
2020/12/21 06:54:34;;;;;;;13.53;9.85;;;;;;;10.92;57.43;101458.30;1723126;82;21135;-64
2020/12/21 06:57:01;;;;;;;13.15;10.25;;;;;;;10.93;57.41;101463.96;1751171;81;21107;-64
2020/12/21 06:59:29;;;;;;;14.23;10.68;;;;;;;10.92;57.39;101462.30;1732736;81;21657;-64
2020/12/21 07:01:56;;;;;;;13.93;10.45;;;;;;;10.93;57.38;101467.48;1736731;81;21170;-65
2020/12/21 07:04:30;;;;;;;15.72;10.40;;;;;;;10.93;57.37;101467.48;1736044;81;21362;-65
2020/12/21 07:06:57;;;;;;;11.95;10.00;;;;;;;10.93;57.36;101474.59;1736050;81;21194;-64
2020/12/21 07:09:27;;;;;;;14.15;10.48;;;;;;;10.92;57.36;101471.11;1735427;81;21657;-64
2020/12/21 07:11:56;;;;;;;13.75;10.30;;;;;;;10.92;57.37;101466.28;1729663;81;21214;-65
2020/12/21 07:14:25;;;;;;;13.88;9.95;;;;;;;10.92;57.35;101471.60;1732038;82;21190;-64
2020/12/21 07:17:15;;;;;;;13.78;10.13;;;;;;;10.92;57.35;101472.44;1735778;82;21595;-64
2020/12/21 07:19:44;;;;;;;13.10;9.38;;;;;;;10.92;57.35;101470.27;1728347;81;22402;-67
2020/12/21 07:22:12;;;;;;;13.50;10.65;;;;;;;10.91;57.33;101469.41;1731385;81;21594;-66
2020/12/21 07:24:41;;;;;;;13.90;9.80;;;;;;;10.91;57.35;101467.23;1738114;81;21192;-66
2020/12/21 07:27:09;;;;;;;12.53;9.63;;;;;;;10.91;57.32;101466.74;1732454;81;21191;-67
2020/12/21 07:29:41;;;;;;;13.28;9.83;;;;;;;10.91;57.31;101469.41;1735819;81;21406;-67
2020/12/21 07:32:08;;;;;;;14.20;10.93;;;;;;;10.91;57.30;101468.08;1735759;82;21139;-67
2020/12/21 07:34:36;;;;;;;12.98;9.50;;;;;;;10.92;57.32;101467.61;1736956;81;21165;-67
2020/12/21 07:37:10;;;;;;;13.65;9.23;;;;;;;10.92;58.00;101471.11;1735857;81;21166;-68
2020/12/21 07:39:38;;;;;;;12.98;9.40;;;;;;;10.93;58.45;101461.30;1735810;82;21139;-67
2020/12/21 07:42:08;;;;;;;11.88;9.25;;;;;;;10.94;58.49;101461.67;1722139;81;21378;-66
2020/12/21 07:44:36;;;;;;;13.40;9.40;;;;;;;10.95;58.50;101462.02;1761358;81;21166;-67
2020/12/21 07:47:13;;;;;;;10.93;8.25;;;;;;;10.96;58.46;101459.73;1766804;79;21638;-68
2020/12/21 07:49:40;;;;;;;13.30;9.80;;;;;;;10.96;58.37;101461.89;1737757;81;21562;-67
2020/12/21 07:52:08;;;;;;;12.30;9.25;;;;;;;10.99;58.32;101463.44;1788847;80;21072;-70
2020/12/21 07:54:43;;;;;;;14.05;10.18;;;;;;;10.99;58.26;101460.78;1742781;80;21642;-67
2020/12/21 07:57:14;;;;;;;11.70;9.05;;;;;;;11.00;58.14;101454.02;1772582;80;21604;-69
2020/12/21 07:59:44;;;;;;;12.33;9.95;;;;;;;11.01;58.10;101458.38;1763531;79;21174;-68
2020/12/21 08:02:11;;;;;;;12.25;8.75;;;;;;;11.01;58.03;101459.70;1741574;81;21130;-70
2020/12/21 08:04:38;;;;;;;10.98;9.03;;;;;;;11.01;57.97;101458.38;1748813;79;21173;-69
2020/12/21 08:07:12;;;;;;;11.30;8.85;;;;;;;11.04;57.92;101459.92;1767769;81;21710;-68
2020/12/21 08:09:40;;;;;;;11.75;8.58;;;;;;;11.04;57.85;101452.44;1768895;79;21202;-66
2020/12/21 08:12:11;;;;;;;11.93;9.45;;;;;;;11.04;57.77;101457.27;1751891;79;21142;-69
2020/12/21 08:14:40;;;;;;;11.83;8.80;;;;;;;11.05;57.76;101458.97;1754265;79;21118;-67
2020/12/21 08:17:13;;;;;;;11.15;7.80;;;;;;;11.06;57.69;101456.64;1769123;81;22210;-69
2020/12/21 08:19:51;;;;;;;10.68;8.23;;;;;;;11.06;57.64;101459.30;1769670;81;22279;-68
2020/12/21 08:22:29;;;;;;;11.35;8.20;;;;;;;11.06;57.59;101459.30;1764872;79;21186;-67
2020/12/21 08:25:11;;;;;;;14.80;9.28;;;;;;;11.07;57.55;101466.33;1769663;81;21170;-67
2020/12/21 08:27:49;;;;;;;11.35;8.58;;;;;;;11.08;57.53;101468.49;1769718;81;21214;-66
2020/12/21 08:30:21;;;;;;;10.10;8.43;;;;;;;11.06;57.49;101464.63;1783845;80;21147;-68
2020/12/21 08:32:50;;;;;;;10.20;8.30;;;;;;;11.07;57.46;101468.12;1773565;78;21241;-67
2020/12/21 08:35:28;;;;;;;9.68;7.47;;;;;;;11.07;57.45;101468.98;1789296;78;21206;-69
2020/12/21 08:38:11;;;;;;;11.53;8.43;;;;;;;11.06;57.40;101459.80;1773940;80;21187;-67
2020/12/21 08:40:37;;;;;;;10.13;8.00;;;;;;;11.08;57.39;101463.17;1771324;79;21186;-66
2020/12/21 08:43:05;;;;;;;11.20;8.98;;;;;;;11.07;57.38;101458.81;1759131;79;21642;-67
2020/12/21 08:45:36;;;;;;;11.63;8.20;;;;;;;11.07;57.34;101451.70;1769598;79;21218;-67
2020/12/21 08:48:05;;;;;;;10.80;8.23;;;;;;;11.07;57.31;101447.71;1767152;79;21211;-67
2020/12/21 08:50:32;;;;;;;10.08;8.13;;;;;;;11.08;57.30;101456.03;1768792;79;21182;-68
2020/12/21 08:53:00;;;;;;;10.38;8.35;;;;;;;11.09;57.25;101455.56;1750989;79;21195;-71
2020/12/21 08:55:27;;;;;;;9.80;8.10;;;;;;;11.09;57.24;101456.89;1766770;79;21162;-71
2020/12/21 08:57:54;;;;;;;9.75;7.70;;;;;;;11.09;57.21;101451.08;1767393;79;21446;-69
2020/12/21 09:00:22;;;;;;;10.60;8.10;;;;;;;11.10;57.19;101449.25;1759292;79;21673;-68
2020/12/21 09:02:49;;;;;;;10.88;7.97;;;;;;;11.11;57.15;101451.79;1784702;78;21158;-69
2020/12/21 09:05:16;;;;;;;11.35;8.68;;;;;;;11.11;57.14;101453.13;1758105;80;21203;-70
2020/12/21 09:07:43;;;;;;;10.03;7.72;;;;;;;11.12;57.12;101448.14;1761050;80;21183;-69
2020/12/21 09:10:13;;;;;;;10.88;7.75;;;;;;;11.12;57.07;101443.31;1769770;80;21416;-69
2020/12/21 09:12:42;;;;;;;10.08;7.40;;;;;;;11.13;57.04;101447.18;1758643;81;21206;-66
2020/12/21 09:15:09;;;;;;;9.68;7.60;;;;;;;11.13;57.02;101437.88;1749810;80;21605;-66
2020/12/21 09:17:37;;;;;;;8.98;7.30;;;;;;;11.14;56.99;101438.21;1749339;80;21190;-67
2020/12/21 09:20:06;;;;;;;10.13;7.83;;;;;;;11.14;56.97;101440.87;1755461;80;21147;-70
2020/12/21 09:22:33;;;;;;;9.80;7.87;;;;;;;11.15;56.96;101440.41;1775838;80;21239;-68
2020/12/21 09:25:00;;;;;;;8.93;7.55;;;;;;;11.15;56.94;101439.91;1773295;79;21242;-73
2020/12/21 09:27:30;;;;;;;7.95;7.12;;;;;;;11.14;56.90;101439.55;1748502;79;21190;-70
2020/12/21 09:29:57;;;;;;;8.78;7.30;;;;;;;11.15;56.89;101440.41;1765197;79;21159;-70
2020/12/21 09:32:25;;;;;;;10.72;8.13;;;;;;;11.14;56.88;101435.55;1765797;79;21210;-69
2020/12/21 09:37:26;;;;;;;10.30;7.60;;;;;;;11.19;56.88;101425.88;1792856;79;28244;-70
2020/12/21 09:39:56;;;;;;;10.90;8.28;;;;;;;11.19;56.78;101424.54;1777846;80;21195;-70
2020/12/21 09:42:24;;;;;;;8.35;7.25;;;;;;;11.18;56.77;101431.69;1782626;78;21379;-69
2020/12/21 09:44:53;;;;;;;10.00;7.62;;;;;;;11.18;56.78;101431.69;1777437;78;21026;-70
2020/12/21 09:47:21;;;;;;;9.65;8.10;;;;;;;11.18;56.76;101429.48;1772843;78;21172;-69
2020/12/21 09:49:48;;;;;;;8.80;7.35;;;;;;;11.17;56.75;101430.48;1779927;78;21159;-69
2020/12/21 09:52:15;;;;;;;8.83;7.50;;;;;;;11.18;56.73;101426.37;1777103;78;21143;-70
2020/12/21 09:54:43;;;;;;;8.55;7.40;;;;;;;11.17;56.73;101424.66;1790384;78;21404;-69
2020/12/21 09:57:10;;;;;;;9.08;7.28;;;;;;;11.18;56.71;101425.03;1781524;78;21174;-67
2020/12/21 09:59:37;;;;;;;8.60;7.40;;;;;;;11.18;56.70;101419.72;1769852;78;21158;-68
2020/12/21 10:02:07;;;;;;;8.23;7.03;;;;;;;11.18;56.66;101427.70;1776353;78;21132;-68
2020/12/21 10:04:34;;;;;;;8.05;6.58;;;;;;;11.19;56.64;101419.22;1778603;78;21178;-69
2020/12/21 10:07:02;;;;;;;8.68;6.95;;;;;;;11.19;56.62;101422.72;1777178;78;21196;-68
2020/12/21 10:09:31;;;;;;;10.20;7.58;;;;;;;11.20;56.61;101424.41;1767244;78;21172;-70
2020/12/21 10:11:58;;;;;;;7.72;6.30;;;;;;;11.20;56.61;101420.42;1780396;78;21127;-70
2020/12/21 10:14:25;;;;;;;9.53;7.37;;;;;;;11.20;56.58;101419.56;1793754;78;21119;-68
2020/12/21 10:16:53;;;;;;;7.55;6.60;;;;;;;11.20;56.57;101423.09;1774499;78;21129;-65
2020/12/21 10:19:21;;;;;;;8.70;6.78;;;;;;;11.21;56.55;101418.11;1769547;78;21398;-66
2020/12/21 10:21:49;;;;;;;8.33;6.97;;;;;;;11.20;56.53;101416.44;1779544;78;21146;-64
2020/12/21 10:24:16;;;;;;;8.80;7.53;;;;;;;11.20;56.52;101417.77;1780034;79;21559;-67
2020/12/21 10:26:43;;;;;;;8.08;6.60;;;;;;;11.20;56.52;101415.11;1768576;78;21130;-67
2020/12/21 10:29:11;;;;;;;8.03;6.87;;;;;;;11.20;56.50;101415.11;1774423;78;21149;-68
2020/12/21 10:31:38;;;;;;;7.78;6.60;;;;;;;11.21;56.48;101417.27;1769071;78;22354;-67
2020/12/21 10:34:05;;;;;;;9.10;7.20;;;;;;;11.21;56.46;101411.45;1772721;78;21198;-69
2020/12/21 10:36:32;;;;;;;8.43;6.67;;;;;;;11.21;56.45;101410.13;1766110;79;21172;-70
2020/12/21 10:38:59;;;;;;;7.95;6.47;;;;;;;11.21;56.44;101415.94;1767537;79;21159;-70
2020/12/21 10:41:33;;;;;;;8.03;6.58;;;;;;;11.20;56.44;101415.11;1766666;79;21126;-66
2020/12/21 10:44:00;;;;;;;7.60;6.20;;;;;;;11.20;56.41;101412.45;1781820;79;21386;-68
2020/12/21 10:46:28;;;;;;;7.40;6.25;;;;;;;11.19;56.42;101416.06;1772472;79;21115;-68
2020/12/21 10:48:55;;;;;;;8.58;6.53;;;;;;;11.19;56.42;101412.57;1766067;79;21176;-70
2020/12/21 10:51:31;;;;;;;7.50;6.33;;;;;;;11.19;56.40;101408.58;1776152;79;21151;-71
2020/12/21 10:53:59;;;;;;;7.60;5.97;;;;;;;11.19;56.40;101410.75;1760460;80;22538;-69
2020/12/21 10:56:27;;;;;;;8.53;6.72;;;;;;;11.18;56.36;101409.08;1764517;79;22248;-72
2020/12/21 10:58:57;;;;;;;7.20;6.20;;;;;;;11.18;56.35;101413.06;1753047;80;21134;-67
2020/12/21 11:01:24;;;;;;;8.03;6.55;;;;;;;11.19;56.35;101403.26;1752348;80;21129;-68
2020/12/21 11:03:51;;;;;;;7.53;6.10;;;;;;;11.19;56.35;101416.56;1765884;80;21155;-67
2020/12/21 11:06:21;;;;;;;6.53;5.80;;;;;;;11.18;56.35;101409.08;1755204;80;21151;-66
2020/12/21 11:08:48;;;;;;;7.22;5.80;;;;;;;11.17;56.33;101411.37;1765052;80;21446;-68
2020/12/21 11:11:27;;;;;;;7.25;6.00;;;;;;;11.18;56.34;101413.06;1753214;80;22282;-70
2020/12/21 11:13:55;;;;;;;7.37;6.37;;;;;;;11.19;56.29;101412.57;1777230;80;21172;-68
2020/12/21 11:16:22;;;;;;;7.12;6.30;;;;;;;11.18;56.29;101410.88;1758683;80;21260;-66
2020/12/21 11:18:49;;;;;;;6.80;5.45;;;;;;;11.17;56.29;101404.72;1782342;80;21132;-66
2020/12/21 11:21:16;;;;;;;7.65;6.30;;;;;;;11.17;56.29;101406.05;1753173;80;22293;-67
2020/12/21 11:23:45;;;;;;;7.60;5.55;;;;;;;11.18;56.29;101402.89;1776000;80;21631;-67
2020/12/21 11:26:13;;;;;;;7.70;5.87;;;;;;;11.16;56.26;101405.70;1753873;80;21176;-67
2020/12/21 11:28:41;;;;;;;6.17;5.25;;;;;;;11.17;56.27;101410.53;1750063;80;21823;-68